Casselton, North Dakota
Current Conditions -  °F | °C
As of 6:53 PM on Saturday 22 Nov 2014 (Local Time) from KFAR Reporting Station
Overcast Overcast  
Wind Chill: 24°   Ceiling: 900
Heat Index: 35°   Visibility: 7mi
Dew Point: 30°   Wind: 18mph
Humidity: 82%   Direction: 160°SSE
Pressure: 29.43"   Gusts: NA
Location:  46.9°N, 97.21°W
Report Text: KFAR 230053Z 16016KT 7SM OVC009 02/M01 A2943 RMK AO2 PK WND 16027/0042 CIG 007V011 SLP976 T00171011
Loading
Personal Weather Stations






























Interactive Weather Map New forecast layout! Learn more

10-Day Weather Forecast

Advertisements
Track Severe Weather on mobile